createdAt,value
2022-08-22T00:01:16.230Z,55.53
2022-08-22T00:03:07.363Z,55.90
2022-08-22T00:03:53.065Z,55.60
2022-08-22T00:06:30.272Z,55.52
2022-08-22T00:09:06.570Z,55.59
2022-08-22T00:11:36.914Z,55.58
2022-08-22T00:14:14.756Z,55.46
2022-08-22T00:17:14.687Z,55.33
2022-08-22T00:19:54.065Z,55.52
2022-08-22T00:22:35.482Z,55.41
2022-08-22T00:25:25.599Z,55.32
2022-08-22T00:28:12.088Z,55.19
2022-08-22T00:31:20.929Z,55.10
2022-08-22T00:34:10.327Z,55.01
2022-08-22T00:36:40.658Z,55.00
2022-08-22T00:39:18.273Z,54.91
2022-08-22T00:42:04.342Z,54.82
2022-08-22T00:44:51.256Z,54.86
2022-08-22T00:47:31.336Z,54.96
2022-08-22T00:50:19.762Z,54.88
2022-08-22T00:53:23.962Z,54.89
2022-08-22T00:56:03.330Z,54.93
2022-08-22T00:58:53.792Z,54.70
2022-08-22T01:01:31.336Z,54.83
2022-08-22T01:04:10.855Z,54.70
2022-08-22T01:06:44.604Z,54.54
2022-08-22T01:09:31.218Z,54.62
2022-08-22T01:12:01.508Z,54.40
2022-08-22T01:14:43.156Z,54.73
2022-08-22T01:17:28.972Z,54.63
2022-08-22T01:20:18.309Z,54.63
2022-08-22T01:23:06.809Z,54.64
2022-08-22T01:25:42.963Z,54.70
2022-08-22T01:28:31.707Z,54.64
2022-08-22T01:31:23.703Z,54.70
2022-08-22T01:34:06.495Z,54.64
2022-08-22T01:36:52.368Z,54.62
2022-08-22T01:39:40.958Z,54.86
2022-08-22T01:42:35.615Z,54.61
2022-08-22T01:45:24.119Z,54.59
2022-08-22T01:48:08.152Z,54.52
2022-08-22T01:50:53.226Z,54.62
2022-08-22T01:54:00.331Z,54.70
2022-08-22T01:56:34.204Z,54.53
2022-08-22T01:59:11.085Z,54.84
2022-08-22T02:01:44.603Z,54.68
2022-08-22T02:05:02.691Z,54.52
2022-08-22T02:07:54.530Z,54.52
2022-08-22T02:10:49.029Z,54.71
2022-08-22T02:13:25.193Z,54.63
2022-08-22T02:16:24.511Z,54.64
2022-08-22T02:19:05.253Z,54.43
2022-08-22T02:21:56.933Z,54.58
2022-08-22T02:25:09.156Z,54.57
2022-08-22T02:27:46.758Z,54.60
2022-08-22T02:30:41.184Z,54.72
2022-08-22T02:33:32.646Z,54.45
2022-08-22T02:36:34.177Z,54.60
2022-08-22T02:39:04.069Z,54.58
2022-08-22T02:41:54.767Z,54.72
2022-08-22T02:44:48.153Z,54.51
2022-08-22T02:47:23.304Z,54.50
2022-08-22T02:50:12.964Z,54.34
2022-08-22T02:53:19.423Z,54.30
2022-08-22T02:56:06.580Z,54.45
2022-08-22T02:59:00.069Z,54.32
2022-08-22T03:01:30.224Z,54.52
2022-08-22T03:04:25.026Z,54.37
2022-08-22T03:07:01.115Z,54.47
2022-08-22T03:09:36.961Z,54.63
2022-08-22T03:12:22.721Z,54.45
2022-08-22T03:15:20.358Z,54.43
2022-08-22T03:18:24.468Z,54.55
2022-08-22T03:21:34.221Z,54.35
2022-08-22T03:24:49.643Z,54.22
2022-08-22T03:27:32.558Z,54.32
2022-08-22T03:30:22.849Z,54.47
2022-08-22T03:32:54.641Z,54.56
2022-08-22T03:35:26.313Z,54.45
2022-08-22T03:38:08.966Z,54.44
2022-08-22T03:40:47.239Z,54.44
2022-08-22T03:43:20.387Z,54.45
2022-08-22T03:45:54.426Z,54.42
2022-08-22T03:48:38.221Z,54.61
2022-08-22T03:51:22.352Z,54.05
2022-08-22T03:54:14.919Z,54.24
2022-08-22T03:57:20.189Z,54.32
2022-08-22T03:59:53.133Z,54.41
2022-08-22T04:02:59.619Z,54.26
2022-08-22T04:05:45.208Z,54.26
2022-08-22T04:08:43.941Z,54.66
2022-08-22T04:11:49.296Z,54.64
2022-08-22T04:14:25.491Z,54.65
2022-08-22T04:17:11.361Z,54.42
2022-08-22T04:19:49.342Z,54.45
2022-08-22T04:22:54.658Z,54.54
2022-08-22T04:26:12.019Z,54.50
2022-08-22T04:28:49.266Z,54.41
2022-08-22T04:31:32.722Z,54.25
2022-08-22T04:34:07.247Z,54.48
2022-08-22T04:36:43.274Z,54.45
2022-08-22T04:39:18.595Z,54.41
2022-08-22T04:42:31.702Z,54.30
2022-08-22T04:45:17.065Z,54.35
2022-08-22T04:47:59.352Z,54.32
2022-08-22T04:50:34.879Z,54.30
2022-08-22T04:53:02.982Z,54.25
2022-08-22T04:55:43.883Z,54.24
2022-08-22T04:59:03.094Z,54.27
2022-08-22T05:01:44.903Z,54.20
2022-08-22T05:04:27.205Z,54.23
2022-08-22T05:07:06.570Z,54.42
2022-08-22T05:09:38.121Z,54.56
2022-08-22T05:12:12.099Z,54.68
2022-08-22T05:14:47.590Z,54.87
2022-08-22T05:17:24.944Z,54.84
2022-08-22T05:19:56.499Z,54.72
2022-08-22T05:22:40.835Z,54.66
2022-08-22T05:25:13.048Z,54.62
2022-08-22T05:27:44.547Z,54.57
2022-08-22T05:30:18.812Z,54.66
2022-08-22T05:33:07.145Z,54.40
2022-08-22T05:35:38.438Z,54.46
2022-08-22T05:38:10.262Z,54.32
2022-08-22T05:40:38.905Z,54.30
2022-08-22T05:43:10.244Z,54.23
2022-08-22T05:45:40.371Z,54.27
2022-08-22T05:48:22.856Z,54.22
2022-08-22T05:50:57.068Z,54.29
2022-08-22T05:53:38.974Z,54.06
2022-08-22T05:56:21.343Z,54.16
2022-08-22T05:58:53.200Z,54.12
2022-08-22T06:01:36.061Z,54.26
2022-08-22T06:04:04.395Z,54.10
2022-08-22T06:06:38.315Z,54.21
2022-08-22T06:09:35.366Z,54.30
2022-08-22T06:12:18.252Z,54.37
2022-08-22T06:15:26.655Z,54.24
2022-08-22T06:17:56.266Z,54.23
2022-08-22T06:20:42.771Z,54.23
2022-08-22T06:23:21.710Z,54.53
2022-08-22T06:25:51.881Z,54.99
2022-08-22T06:28:28.537Z,54.61
2022-08-22T06:31:00.501Z,54.38
2022-08-22T06:33:31.015Z,54.54
2022-08-22T06:36:28.938Z,54.48
2022-08-22T06:39:13.113Z,55.13
2022-08-22T06:41:50.916Z,55.29
2022-08-22T06:44:26.671Z,55.69
2022-08-22T06:46:58.438Z,55.52
2022-08-22T06:49:27.705Z,55.57
2022-08-22T06:52:02.062Z,55.90
2022-08-22T06:54:34.852Z,55.83
2022-08-22T06:57:03.626Z,56.07
2022-08-22T06:59:35.436Z,56.28
2022-08-22T07:02:21.080Z,56.39
2022-08-22T07:04:51.322Z,56.09
2022-08-22T07:07:20.234Z,56.03
2022-08-22T07:09:58.565Z,55.86
2022-08-22T07:12:31.355Z,55.97
2022-08-22T07:15:09.224Z,56.09
2022-08-22T07:17:40.488Z,56.56
2022-08-22T07:20:28.088Z,56.57
2022-08-22T07:22:59.796Z,56.90
2022-08-22T07:25:28.830Z,57.16
2022-08-22T07:28:34.721Z,57.26
2022-08-22T07:31:17.862Z,57.11
2022-08-22T07:33:50.055Z,57.08
2022-08-22T07:36:32.586Z,57.63
2022-08-22T07:39:39.523Z,57.74
2022-08-22T07:42:22.427Z,57.41
2022-08-22T07:45:14.122Z,57.28
2022-08-22T07:47:50.251Z,57.06
2022-08-22T07:50:39.403Z,57.10
2022-08-22T07:53:34.648Z,56.64
2022-08-22T07:56:05.009Z,56.72
2022-08-22T07:58:35.667Z,56.40
2022-08-22T08:01:03.344Z,56.18
2022-08-22T08:03:31.675Z,56.28
2022-08-22T08:06:01.258Z,56.42
2022-08-22T08:08:38.883Z,56.39
2022-08-22T08:11:10.550Z,56.00
2022-08-22T08:13:42.413Z,56.15
2022-08-22T08:16:17.991Z,56.12
2022-08-22T08:18:48.667Z,56.36
2022-08-22T08:21:36.213Z,56.27
2022-08-22T08:24:08.261Z,56.20
2022-08-22T08:27:01.147Z,56.18
2022-08-22T08:29:29.924Z,55.86
2022-08-22T08:32:00.216Z,55.87
2022-08-22T08:34:30.057Z,55.92
2022-08-22T08:37:05.483Z,55.93
2022-08-22T08:39:49.815Z,56.39
2022-08-22T08:42:32.327Z,56.11
2022-08-22T08:45:08.593Z,56.21
2022-08-22T08:48:03.050Z,56.02
2022-08-22T08:50:31.527Z,55.76
2022-08-22T08:53:35.439Z,55.51
2022-08-22T08:56:21.094Z,56.04
2022-08-22T08:59:27.256Z,55.61
2022-08-22T09:02:03.586Z,55.82
2022-08-22T09:04:59.665Z,55.74
2022-08-22T09:07:39.001Z,55.84
2022-08-22T09:10:43.739Z,56.11
2022-08-22T09:13:29.051Z,56.40
2022-08-22T09:16:17.582Z,56.14
2022-08-22T09:18:59.534Z,56.19
2022-08-22T09:21:31.331Z,56.16
2022-08-22T09:24:29.494Z,55.87
2022-08-22T09:27:03.837Z,55.65
2022-08-22T09:29:51.675Z,55.64
2022-08-22T09:32:48.581Z,55.11
2022-08-22T09:35:15.978Z,55.07
2022-08-22T09:37:46.474Z,54.75
2022-08-22T09:43:21.113Z,53.90
2022-08-22T09:46:18.594Z,54.17
2022-08-22T09:48:58.267Z,53.94
2022-08-22T09:51:46.900Z,53.73
2022-08-22T09:54:31.205Z,53.37
2022-08-22T09:57:19.870Z,53.45
2022-08-22T10:00:05.212Z,53.34
2022-08-22T10:02:50.328Z,53.19
2022-08-22T10:05:41.248Z,53.22
2022-08-22T10:08:29.476Z,52.93
2022-08-22T10:11:03.518Z,52.71
2022-08-22T10:13:47.048Z,52.26
2022-08-22T10:16:39.497Z,51.98
2022-08-22T10:19:18.058Z,51.96
2022-08-22T10:21:48.367Z,51.78
2022-08-22T10:24:43.690Z,51.37
2022-08-22T10:27:30.297Z,50.41
2022-08-22T10:30:21.625Z,50.51
2022-08-22T10:32:48.862Z,50.09
2022-08-22T10:35:29.526Z,49.92
2022-08-22T10:38:07.241Z,49.69
2022-08-22T10:40:53.608Z,50.20
2022-08-22T10:43:36.451Z,49.60
2022-08-22T10:46:12.650Z,48.46
2022-08-22T10:48:47.461Z,49.22
2022-08-22T10:51:31.796Z,48.17
2022-08-22T10:54:37.281Z,49.03
2022-08-22T10:57:20.714Z,49.12
2022-08-22T11:00:01.916Z,48.62
2022-08-22T11:02:36.197Z,48.37
2022-08-22T11:05:18.829Z,48.01
2022-08-22T11:07:56.020Z,47.97
2022-08-22T11:10:52.161Z,47.30
2022-08-22T11:13:46.794Z,48.35
2022-08-22T11:16:55.708Z,48.12
2022-08-22T11:19:44.768Z,48.27
2022-08-22T11:22:15.292Z,48.41
2022-08-22T11:25:04.688Z,47.94
2022-08-22T11:27:53.122Z,47.62
2022-08-22T11:30:44.890Z,48.19
2022-08-22T11:33:37.399Z,48.36
2022-08-22T11:36:47.240Z,47.99
2022-08-22T11:39:34.998Z,48.31
2022-08-22T11:42:14.306Z,48.13
2022-08-22T11:44:52.058Z,47.98
2022-08-22T11:47:28.257Z,46.30
2022-08-22T11:50:18.647Z,47.48
2022-08-22T11:53:05.388Z,47.78
2022-08-22T11:55:54.341Z,47.65
2022-08-22T11:58:39.978Z,48.16
2022-08-22T12:01:21.975Z,48.21
2022-08-22T12:04:10.533Z,47.60
2022-08-22T12:06:58.119Z,48.06
2022-08-22T12:09:50.564Z,48.12
2022-08-22T12:12:42.703Z,47.97
2022-08-22T12:15:43.212Z,47.98
2022-08-22T12:18:22.262Z,48.05
2022-08-22T12:21:22.465Z,47.79
2022-08-22T12:24:11.193Z,47.31
2022-08-22T12:26:46.700Z,47.39
2022-08-22T12:29:39.975Z,47.80
2022-08-22T12:32:27.672Z,47.43
2022-08-22T12:35:14.593Z,47.13
2022-08-22T12:38:29.153Z,47.31
2022-08-22T12:41:34.675Z,47.38
2022-08-22T12:44:19.148Z,47.01
2022-08-22T12:46:47.605Z,47.33
2022-08-22T12:49:31.250Z,46.76
2022-08-22T12:52:18.819Z,46.34
2022-08-22T12:54:57.900Z,46.80
2022-08-22T12:57:36.766Z,46.86
2022-08-22T13:00:12.171Z,46.94
2022-08-22T13:02:41.669Z,47.04
2022-08-22T13:05:20.006Z,46.82
2022-08-22T13:07:54.990Z,46.40
2022-08-22T13:10:45.199Z,46.95
2022-08-22T13:13:37.086Z,46.95
2022-08-22T13:16:15.520Z,46.72
2022-08-22T13:18:53.466Z,45.57
2022-08-22T13:21:35.935Z,43.87
2022-08-22T13:24:12.184Z,44.22
2022-08-22T13:26:53.501Z,45.03
2022-08-22T13:29:39.342Z,45.34
2022-08-22T13:32:29.258Z,45.41
2022-08-22T13:34:58.426Z,45.83
2022-08-22T13:37:35.884Z,45.64
2022-08-22T13:40:09.032Z,45.94
2022-08-22T13:42:45.578Z,45.40
2022-08-22T13:45:25.321Z,45.44
2022-08-22T13:48:03.726Z,41.36
2022-08-22T13:50:53.084Z,42.58
2022-08-22T13:53:49.801Z,43.80
2022-08-22T13:56:39.902Z,44.02
2022-08-22T13:59:50.866Z,44.45
2022-08-22T14:02:43.749Z,44.55
2022-08-22T14:06:47.274Z,44.58
2022-08-22T14:09:41.230Z,44.64
2022-08-22T14:12:12.024Z,44.80
2022-08-22T14:14:47.400Z,45.25
2022-08-22T14:17:23.161Z,45.71
2022-08-22T14:20:11.111Z,45.01
2022-08-22T14:22:41.686Z,45.15
2022-08-22T14:25:25.940Z,44.25
2022-08-22T14:28:06.461Z,44.71
2022-08-22T14:30:59.351Z,44.92
2022-08-22T14:33:39.997Z,45.14
2022-08-22T14:36:17.207Z,45.29
2022-08-22T14:38:56.149Z,44.96
2022-08-22T14:41:52.709Z,44.94
2022-08-22T14:44:36.724Z,44.76
2022-08-22T14:47:32.279Z,44.87
2022-08-22T14:50:02.556Z,45.17
2022-08-22T14:52:45.936Z,45.02
2022-08-22T14:55:13.315Z,45.17
2022-08-22T14:58:03.514Z,45.58
2022-08-22T15:00:42.832Z,45.46
2022-08-22T15:03:38.043Z,45.22
2022-08-22T15:06:10.899Z,45.71
2022-08-22T15:08:46.295Z,45.68
2022-08-22T15:11:22.751Z,45.53
2022-08-22T15:13:51.673Z,45.75
2022-08-22T15:16:35.959Z,45.51
2022-08-22T15:19:24.842Z,46.08
2022-08-22T15:22:09.994Z,45.76
2022-08-22T15:25:11.350Z,45.49
2022-08-22T15:28:20.583Z,45.34
2022-08-22T15:31:03.438Z,45.54
2022-08-22T15:33:40.039Z,45.76
2022-08-22T15:36:21.776Z,45.57
2022-08-22T15:38:55.663Z,45.62
2022-08-22T15:41:36.784Z,46.48
2022-08-22T15:44:14.811Z,45.59
2022-08-22T15:47:01.110Z,45.85
2022-08-22T15:49:32.289Z,45.84
2022-08-22T15:52:01.397Z,45.66
2022-08-22T15:55:03.881Z,45.78
2022-08-22T15:57:40.148Z,45.66
2022-08-22T16:00:43.413Z,45.48
2022-08-22T16:03:31.000Z,45.38
2022-08-22T16:06:02.016Z,45.87
2022-08-22T16:08:50.682Z,45.72
2022-08-22T16:11:33.013Z,45.83
2022-08-22T16:14:19.162Z,45.75
2022-08-22T16:16:58.131Z,45.86
2022-08-22T16:19:29.104Z,46.12
2022-08-22T16:21:56.328Z,46.12
2022-08-22T16:24:23.869Z,46.25
2022-08-22T16:26:52.400Z,46.17
2022-08-22T16:29:25.736Z,46.17
2022-08-22T16:31:54.776Z,46.32
2022-08-22T16:34:26.607Z,46.22
2022-08-22T16:37:08.925Z,46.44
2022-08-22T16:39:42.293Z,46.37
2022-08-22T16:42:12.732Z,46.35
2022-08-22T16:45:41.598Z,46.47
2022-08-22T16:48:34.731Z,46.63
2022-08-22T16:51:09.120Z,46.62
2022-08-22T16:53:39.060Z,46.63
2022-08-22T16:56:48.502Z,46.69
2022-08-22T16:59:53.029Z,46.60
2022-08-22T17:02:38.802Z,46.80
2022-08-22T17:05:32.310Z,46.95
2022-08-22T17:08:37.164Z,47.03
2022-08-22T17:11:19.497Z,46.88
2022-08-22T17:14:08.020Z,47.03
2022-08-22T17:16:53.903Z,47.55
2022-08-22T17:19:36.307Z,47.39
2022-08-22T17:22:18.716Z,47.92
2022-08-22T17:24:54.799Z,48.27
2022-08-22T17:27:40.741Z,47.92
2022-08-22T17:30:13.648Z,48.05
2022-08-22T17:33:06.348Z,48.09
2022-08-22T17:35:45.629Z,47.54
2022-08-22T17:38:43.464Z,47.56
2022-08-22T17:41:39.643Z,47.80
2022-08-22T17:44:27.250Z,47.42
2022-08-22T17:47:01.976Z,47.32
2022-08-22T17:49:41.476Z,47.04
2022-08-22T17:52:34.232Z,47.08
2022-08-22T17:55:23.450Z,46.61
2022-08-22T17:57:57.936Z,46.59
2022-08-22T18:00:30.703Z,46.70
2022-08-22T18:03:22.487Z,46.67
2022-08-22T18:06:10.301Z,46.66
2022-08-22T18:09:15.216Z,46.67
2022-08-22T18:12:11.756Z,45.90
2022-08-22T18:14:55.273Z,46.13
2022-08-22T18:17:25.666Z,45.90
2022-08-22T18:19:55.889Z,46.22
2022-08-22T18:22:31.846Z,46.53
2022-08-22T18:25:32.237Z,47.05
2022-08-22T18:28:14.489Z,46.61
2022-08-22T18:30:57.670Z,46.84
2022-08-22T18:33:34.595Z,46.57
2022-08-22T18:36:29.018Z,45.86
2022-08-22T18:39:15.347Z,45.37
2022-08-22T18:41:55.195Z,45.58
2022-08-22T18:44:31.714Z,45.50
2022-08-22T18:47:10.314Z,45.53
2022-08-22T18:49:43.277Z,45.25
2022-08-22T18:52:20.917Z,44.41
2022-08-22T18:54:51.142Z,44.53
2022-08-22T18:57:55.419Z,43.83
2022-08-22T19:00:36.212Z,43.28
2022-08-22T19:03:31.296Z,42.72
2022-08-22T19:06:42.774Z,43.29
2022-08-22T19:09:35.111Z,43.43
2022-08-22T19:12:14.587Z,43.72
2022-08-22T19:14:44.540Z,44.35
2022-08-22T19:17:16.226Z,44.49
2022-08-22T19:20:40.309Z,45.01
2022-08-22T19:23:33.913Z,45.13
2022-08-22T19:26:24.540Z,45.36
2022-08-22T19:28:56.774Z,45.35
2022-08-22T19:31:44.330Z,45.33
2022-08-22T19:34:21.673Z,45.54
2022-08-22T19:37:33.150Z,45.70
2022-08-22T19:40:08.122Z,45.90
2022-08-22T19:42:38.249Z,45.95
2022-08-22T19:45:20.389Z,45.79
2022-08-22T19:48:14.608Z,45.99
2022-08-22T19:50:43.313Z,45.97
2022-08-22T19:53:24.407Z,46.11
2022-08-22T19:56:00.547Z,46.29
2022-08-22T19:58:59.259Z,46.69
2022-08-22T20:01:42.746Z,46.73
2022-08-22T20:05:00.651Z,46.83
2022-08-22T20:07:43.336Z,47.03
2022-08-22T20:10:31.256Z,46.92
2022-08-22T20:13:12.028Z,46.82
2022-08-22T20:16:10.407Z,46.82
2022-08-22T20:19:07.848Z,46.96
2022-08-22T20:21:41.307Z,46.89
2022-08-22T20:24:22.744Z,46.84
2022-08-22T20:27:12.725Z,47.10
2022-08-22T20:29:50.203Z,47.15
2022-08-22T20:32:21.181Z,47.17
2022-08-22T20:34:54.036Z,47.15
2022-08-22T20:37:50.349Z,47.58
2022-08-22T20:40:55.095Z,47.64
2022-08-22T20:43:39.354Z,47.85
2022-08-22T20:46:37.923Z,47.96
2022-08-22T20:49:18.511Z,47.88
2022-08-22T20:52:23.480Z,48.05
2022-08-22T20:55:11.533Z,48.43
2022-08-22T20:57:47.923Z,48.72
2022-08-22T21:00:22.175Z,48.86
2022-08-22T21:03:08.946Z,49.08
2022-08-22T21:05:43.024Z,49.15
2022-08-22T21:08:26.349Z,49.11
2022-08-22T21:11:28.733Z,49.35
2022-08-22T21:13:56.335Z,49.25
2022-08-22T21:16:33.620Z,49.41
2022-08-22T21:19:04.147Z,49.58
2022-08-22T21:21:35.134Z,49.46
2022-08-22T21:24:08.158Z,49.54
2022-08-22T21:26:40.758Z,49.45
2022-08-22T21:29:22.427Z,49.93
2022-08-22T21:32:04.469Z,49.94
2022-08-22T21:34:41.385Z,50.24
2022-08-22T21:37:17.557Z,50.29
2022-08-22T21:39:49.835Z,50.04
2022-08-22T21:42:33.297Z,50.00
2022-08-22T21:45:05.254Z,50.16
2022-08-22T21:47:35.789Z,50.51
2022-08-22T21:50:12.094Z,50.58
2022-08-22T21:52:55.991Z,50.79
2022-08-22T21:55:30.705Z,50.89
2022-08-22T21:58:07.436Z,50.72
2022-08-22T22:01:13.479Z,50.51
2022-08-22T22:03:41.723Z,50.29
2022-08-22T22:06:09.000Z,50.38
2022-08-22T22:08:36.310Z,50.63
2022-08-22T22:11:08.397Z,50.93
2022-08-22T22:13:36.391Z,51.40
2022-08-22T22:16:06.354Z,51.63
2022-08-22T22:18:34.868Z,51.72
2022-08-22T22:21:02.219Z,51.54
2022-08-22T22:23:29.919Z,51.49
2022-08-22T22:26:01.207Z,51.30
2022-08-22T22:28:31.527Z,50.97
2022-08-22T22:30:58.912Z,50.86
2022-08-22T22:33:30.786Z,50.55
2022-08-22T22:36:05.172Z,50.42
2022-08-22T22:38:32.751Z,50.21
2022-08-22T22:41:00.265Z,50.15
2022-08-22T22:43:28.234Z,50.13
2022-08-22T22:45:55.518Z,50.13
2022-08-22T22:48:24.882Z,50.18
2022-08-22T22:50:53.946Z,50.09
2022-08-22T22:53:28.453Z,49.99
2022-08-22T22:56:09.114Z,50.17
2022-08-22T22:58:37.964Z,50.11
2022-08-22T23:01:13.000Z,50.04
2022-08-22T23:03:40.795Z,49.89
2022-08-22T23:06:18.058Z,49.83
2022-08-22T23:08:46.075Z,49.69
2022-08-22T23:11:17.607Z,49.83
2022-08-22T23:13:45.275Z,49.70
2022-08-22T23:16:16.472Z,49.71
2022-08-22T23:18:44.287Z,49.73
2022-08-22T23:21:29.193Z,49.61
2022-08-22T23:23:58.956Z,49.73
2022-08-22T23:26:27.035Z,49.68
2022-08-22T23:28:54.489Z,49.54
2022-08-22T23:31:35.922Z,49.60
2022-08-22T23:34:06.697Z,49.49
2022-08-22T23:36:35.221Z,49.33
2022-08-22T23:39:05.494Z,49.36
2022-08-22T23:41:33.501Z,49.43
2022-08-22T23:44:00.862Z,49.45
2022-08-22T23:46:28.231Z,49.08
2022-08-22T23:48:58.704Z,49.14
2022-08-22T23:51:27.577Z,49.07
2022-08-22T23:53:57.576Z,49.25
2022-08-22T23:56:34.697Z,49.19
2022-08-22T23:59:05.786Z,48.91
